sensor_id;sensor_type;location;lat;lon;timestamp;pressure;altitude;pressure_sealevel;temperature;humidity
51297;BME280;37380;45.186;9.792;2023-04-24T00:01:04;100138.69;;;16.02;88.65
51297;BME280;37380;45.186;9.792;2023-04-24T00:03:35;100095.50;;;15.67;91.37
51297;BME280;37380;45.186;9.792;2023-04-24T00:06:02;100114.00;;;15.76;93.27
51297;BME280;37380;45.186;9.792;2023-04-24T00:08:29;100125.41;;;15.73;95.81
51297;BME280;37380;45.186;9.792;2023-04-24T00:10:56;100101.63;;;15.59;97.91
51297;BME280;37380;45.186;9.792;2023-04-24T00:13:23;100133.16;;;15.50;100.00
51297;BME280;37380;45.186;9.792;2023-04-24T00:15:51;100135.75;;;15.43;100.00
51297;BME280;37380;45.186;9.792;2023-04-24T00:18:18;100130.47;;;15.36;100.00
51297;BME280;37380;45.186;9.792;2023-04-24T00:20:45;100092.50;;;15.01;100.00
51297;BME280;37380;45.186;9.792;2023-04-24T00:23:13;100125.97;;;15.19;100.00
51297;BME280;37380;45.186;9.792;2023-04-24T00:25:40;100016.78;;;14.55;100.00
51297;BME280;37380;45.186;9.792;2023-04-24T00:28:14;100140.88;;;15.21;100.00
51297;BME280;37380;45.186;9.792;2023-04-24T00:31:09;100138.25;;;15.20;100.00
51297;BME280;37380;45.186;9.792;2023-04-24T00:33:36;100094.06;;;14.76;100.00
51297;BME280;37380;45.186;9.792;2023-04-24T00:36:03;100108.94;;;14.70;100.00
51297;BME280;37380;45.186;9.792;2023-04-24T00:38:30;100114.22;;;14.72;100.00
51297;BME280;37380;45.186;9.792;2023-04-24T00:40:57;100016.47;;;14.21;100.00
51297;BME280;37380;45.186;9.792;2023-04-24T00:43:25;100090.56;;;14.77;100.00
51297;BME280;37380;45.186;9.792;2023-04-24T00:45:52;100117.72;;;14.73;100.00
51297;BME280;37380;45.186;9.792;2023-04-24T00:48:20;100070.06;;;14.37;100.00
51297;BME280;37380;45.186;9.792;2023-04-24T00:50:48;100068.34;;;14.42;100.00
51297;BME280;37380;45.186;9.792;2023-04-24T00:53:22;100102.78;;;14.67;100.00
51297;BME280;37380;45.186;9.792;2023-04-24T00:56:23;100095.81;;;14.74;100.00
51297;BME280;37380;45.186;9.792;2023-04-24T00:59:17;100111.59;;;14.74;100.00
51297;BME280;37380;45.186;9.792;2023-04-24T01:01:45;100109.84;;;14.76;100.00
51297;BME280;37380;45.186;9.792;2023-04-24T01:04:12;100072.03;;;14.60;100.00
51297;BME280;37380;45.186;9.792;2023-04-24T01:06:41;100070.31;;;14.63;100.00
51297;BME280;37380;45.186;9.792;2023-04-24T01:09:10;100033.31;;;14.45;100.00
51297;BME280;37380;45.186;9.792;2023-04-24T01:11:41;99970.91;;;14.19;100.00
51297;BME280;37380;45.186;9.792;2023-04-24T01:14:09;100070.28;;;14.62;100.00
51297;BME280;37380;45.186;9.792;2023-04-24T01:16:36;100084.28;;;14.59;100.00
51297;BME280;37380;45.186;9.792;2023-04-24T01:19:10;100094.03;;;14.69;100.00
51297;BME280;37380;45.186;9.792;2023-04-24T01:21:38;100072.84;;;14.54;100.00
51297;BME280;37380;45.186;9.792;2023-04-24T01:24:06;100048.03;;;14.24;100.00
51297;BME280;37380;45.186;9.792;2023-04-24T01:26:33;100068.22;;;14.25;100.00
51297;BME280;37380;45.186;9.792;2023-04-24T01:29:07;100104.16;;;14.30;100.00
51297;BME280;37380;45.186;9.792;2023-04-24T01:32:02;100097.16;;;14.32;100.00
51297;BME280;37380;45.186;9.792;2023-04-24T01:34:29;100062.78;;;14.10;100.00
51297;BME280;37380;45.186;9.792;2023-04-24T01:36:56;100063.88;;;14.34;100.00
51297;BME280;37380;45.186;9.792;2023-04-24T01:39:23;100108.66;;;14.44;100.00
51297;BME280;37380;45.186;9.792;2023-04-24T01:41:54;100108.59;;;14.37;100.00
51297;BME280;37380;45.186;9.792;2023-04-24T01:44:21;99949.22;;;13.46;100.00
51297;BME280;37380;45.186;9.792;2023-04-24T01:46:48;100066.31;;;14.12;100.00
51297;BME280;37380;45.186;9.792;2023-04-24T01:49:15;100105.94;;;14.34;100.00
51297;BME280;37380;45.186;9.792;2023-04-24T01:51:44;100102.53;;;14.44;100.00
51297;BME280;37380;45.186;9.792;2023-04-24T01:54:11;100065.41;;;14.09;100.00
51297;BME280;37380;45.186;9.792;2023-04-24T01:56:42;99974.78;;;13.62;100.00
51297;BME280;37380;45.186;9.792;2023-04-24T01:59:11;100089.13;;;14.19;100.00
51297;BME280;37380;45.186;9.792;2023-04-24T02:01:39;100107.50;;;14.16;100.00
51297;BME280;37380;45.186;9.792;2023-04-24T02:04:07;100014.19;;;13.67;100.00
51297;BME280;37380;45.186;9.792;2023-04-24T02:06:35;100026.56;;;13.78;100.00
51297;BME280;37380;45.186;9.792;2023-04-24T02:09:02;99967.44;;;13.33;100.00
51297;BME280;37380;45.186;9.792;2023-04-24T02:11:30;100080.94;;;13.89;100.00
51297;BME280;37380;45.186;9.792;2023-04-24T02:13:57;100088.84;;;13.92;100.00
51297;BME280;37380;45.186;9.792;2023-04-24T02:16:25;100102.03;;;13.93;100.00
51297;BME280;37380;45.186;9.792;2023-04-24T02:18:52;100079.19;;;13.88;100.00
51297;BME280;37380;45.186;9.792;2023-04-24T02:21:20;100026.16;;;13.43;100.00
51297;BME280;37380;45.186;9.792;2023-04-24T02:23:46;100069.22;;;13.59;100.00
51297;BME280;37380;45.186;9.792;2023-04-24T02:26:13;100098.38;;;13.84;100.00
51297;BME280;37380;45.186;9.792;2023-04-24T02:28:47;100107.03;;;13.73;100.00
51297;BME280;37380;45.186;9.792;2023-04-24T02:31:48;100060.31;;;13.46;100.00
51297;BME280;37380;45.186;9.792;2023-04-24T02:34:42;100056.00;;;13.50;100.00
51297;BME280;37380;45.186;9.792;2023-04-24T02:37:11;100073.50;;;13.52;100.00
51297;BME280;37380;45.186;9.792;2023-04-24T02:39:38;100065.38;;;13.29;100.00
51297;BME280;37380;45.186;9.792;2023-04-24T02:42:06;100052.81;;;13.10;100.00
51297;BME280;37380;45.186;9.792;2023-04-24T02:44:34;100021.75;;;12.80;100.00
51297;BME280;37380;45.186;9.792;2023-04-24T02:47:01;100110.09;;;13.39;100.00
51297;BME280;37380;45.186;9.792;2023-04-24T02:49:29;100106.63;;;13.41;100.00
51297;BME280;37380;45.186;9.792;2023-04-24T02:51:56;100028.09;;;12.94;100.00
51297;BME280;37380;45.186;9.792;2023-04-24T02:54:24;100093.22;;;13.24;100.00
51297;BME280;37380;45.186;9.792;2023-04-24T02:56:51;100080.13;;;13.24;100.00
51297;BME280;37380;45.186;9.792;2023-04-24T02:59:18;100085.31;;;13.21;100.00
51297;BME280;37380;45.186;9.792;2023-04-24T03:01:52;100082.53;;;13.09;100.00
51297;BME280;37380;45.186;9.792;2023-04-24T03:04:48;100038.50;;;12.86;100.00
51297;BME280;37380;45.186;9.792;2023-04-24T03:07:15;100098.44;;;13.21;100.00
51297;BME280;37380;45.186;9.792;2023-04-24T03:09:42;100021.94;;;12.90;100.00
51297;BME280;37380;45.186;9.792;2023-04-24T03:12:10;100066.38;;;13.44;100.00
51297;BME280;37380;45.186;9.792;2023-04-24T03:14:38;100080.31;;;13.36;100.00
51297;BME280;37380;45.186;9.792;2023-04-24T03:17:05;100072.56;;;13.46;100.00
51297;BME280;37380;45.186;9.792;2023-04-24T03:19:32;100063.69;;;13.36;100.00
51297;BME280;37380;45.186;9.792;2023-04-24T03:22:04;99992.53;;;13.13;100.00
51297;BME280;37380;45.186;9.792;2023-04-24T03:24:32;100034.97;;;13.48;100.00
51297;BME280;37380;45.186;9.792;2023-04-24T03:26:59;100043.78;;;13.55;100.00
51297;BME280;37380;45.186;9.792;2023-04-24T03:29:52;100070.31;;;13.76;100.00
51297;BME280;37380;45.186;9.792;2023-04-24T03:32:52;100049.22;;;13.67;100.00
51297;BME280;37380;45.186;9.792;2023-04-24T03:35:24;100035.94;;;13.58;100.00
51297;BME280;37380;45.186;9.792;2023-04-24T03:37:52;100085.22;;;13.80;100.00
51297;BME280;37380;45.186;9.792;2023-04-24T03:40:37;100084.56;;;13.97;100.00
51297;BME280;37380;45.186;9.792;2023-04-24T03:43:14;100012.28;;;13.55;100.00
51297;BME280;37380;45.186;9.792;2023-04-24T03:45:41;100074.84;;;13.93;100.00
51297;BME280;37380;45.186;9.792;2023-04-24T03:48:10;100042.34;;;13.81;100.00
51297;BME280;37380;45.186;9.792;2023-04-24T03:50:37;100060.94;;;14.01;100.00
51297;BME280;37380;45.186;9.792;2023-04-24T03:53:07;99944.66;;;13.28;100.00
51297;BME280;37380;45.186;9.792;2023-04-24T03:55:38;99984.47;;;13.68;100.00
51297;BME280;37380;45.186;9.792;2023-04-24T03:58:12;100031.84;;;13.81;100.00
51297;BME280;37380;45.186;9.792;2023-04-24T04:01:13;99954.25;;;13.27;100.00
51297;BME280;37380;45.186;9.792;2023-04-24T04:04:19;100077.63;;;14.05;100.00
51297;BME280;37380;45.186;9.792;2023-04-24T04:07:11;100000.03;;;13.54;100.00
51297;BME280;37380;45.186;9.792;2023-04-24T04:09:39;100059.06;;;13.88;100.00
51297;BME280;37380;45.186;9.792;2023-04-24T04:12:07;100049.47;;;13.92;100.00
51297;BME280;37380;45.186;9.792;2023-04-24T04:14:36;100062.56;;;13.90;100.00
51297;BME280;37380;45.186;9.792;2023-04-24T04:17:03;100046.59;;;13.69;100.00
51297;BME280;37380;45.186;9.792;2023-04-24T04:19:30;100000.00;;;13.51;100.00
51297;BME280;37380;45.186;9.792;2023-04-24T04:21:57;100067.91;;;13.96;100.00
51297;BME280;37380;45.186;9.792;2023-04-24T04:24:39;100026.41;;;13.63;100.00
51297;BME280;37380;45.186;9.792;2023-04-24T04:27:08;99945.56;;;13.31;100.00
51297;BME280;37380;45.186;9.792;2023-04-24T04:29:50;100005.38;;;13.60;100.00
51297;BME280;37380;45.186;9.792;2023-04-24T04:32:52;100076.63;;;13.95;100.00
51297;BME280;37380;45.186;9.792;2023-04-24T04:35:21;100009.72;;;13.59;100.00
51297;BME280;37380;45.186;9.792;2023-04-24T04:37:50;100067.94;;;14.01;100.00
51297;BME280;37380;45.186;9.792;2023-04-24T04:40:47;99966.78;;;13.51;100.00
51297;BME280;37380;45.186;9.792;2023-04-24T04:43:16;99913.94;;;13.22;100.00
51297;BME280;37380;45.186;9.792;2023-04-24T04:45:50;100046.88;;;13.93;100.00
51297;BME280;37380;45.186;9.792;2023-04-24T04:48:33;100060.34;;;14.29;100.00
51297;BME280;37380;45.186;9.792;2023-04-24T04:51:03;100018.97;;;14.08;100.00
51297;BME280;37380;45.186;9.792;2023-04-24T04:53:31;100065.53;;;14.24;100.00
51297;BME280;37380;45.186;9.792;2023-04-24T04:55:58;100098.94;;;14.36;100.00
51297;BME280;37380;45.186;9.792;2023-04-24T04:58:40;100098.13;;;14.41;100.00
51297;BME280;37380;45.186;9.792;2023-04-24T05:01:18;100060.34;;;14.29;100.00
51297;BME280;37380;45.186;9.792;2023-04-24T05:04:22;100033.97;;;14.18;100.00
51297;BME280;37380;45.186;9.792;2023-04-24T05:07:23;100070.00;;;14.31;100.00
51297;BME280;37380;45.186;9.792;2023-04-24T05:10:17;100092.00;;;14.42;100.00
51297;BME280;37380;45.186;9.792;2023-04-24T05:12:44;100042.63;;;14.09;100.00
51297;BME280;37380;45.186;9.792;2023-04-24T05:15:12;99980.91;;;13.64;100.00
51297;BME280;37380;45.186;9.792;2023-04-24T05:17:39;100114.78;;;14.45;100.00
51297;BME280;37380;45.186;9.792;2023-04-24T05:20:08;100107.69;;;14.32;100.00
51297;BME280;37380;45.186;9.792;2023-04-24T05:22:37;100110.41;;;14.45;100.00
51297;BME280;37380;45.186;9.792;2023-04-24T05:25:04;100068.97;;;14.15;100.00
51297;BME280;37380;45.186;9.792;2023-04-24T05:27:46;100063.72;;;14.15;100.00
51297;BME280;37380;45.186;9.792;2023-04-24T05:30:36;100063.63;;;14.06;100.00
51297;BME280;37380;45.186;9.792;2023-04-24T05:33:03;100103.28;;;14.34;100.00
51297;BME280;37380;45.186;9.792;2023-04-24T05:35:33;100083.81;;;14.12;100.00
51297;BME280;37380;45.186;9.792;2023-04-24T05:38:01;100108.59;;;14.37;100.00
51297;BME280;37380;45.186;9.792;2023-04-24T05:40:28;100119.09;;;14.35;100.00
51297;BME280;37380;45.186;9.792;2023-04-24T05:42:55;100112.81;;;14.21;100.00
51297;BME280;37380;45.186;9.792;2023-04-24T05:45:23;100081.16;;;14.10;100.00
51297;BME280;37380;45.186;9.792;2023-04-24T05:47:50;100122.81;;;14.53;100.00
51297;BME280;37380;45.186;9.792;2023-04-24T05:50:19;100125.28;;;14.42;100.00
51297;BME280;37380;45.186;9.792;2023-04-24T05:52:46;100070.78;;;14.21;100.00
51297;BME280;37380;45.186;9.792;2023-04-24T05:55:27;100136.94;;;14.65;100.00
51297;BME280;37380;45.186;9.792;2023-04-24T05:57:54;100068.53;;;14.59;100.00
51297;BME280;37380;45.186;9.792;2023-04-24T06:00:23;100118.69;;;14.85;100.00
51297;BME280;37380;45.186;9.792;2023-04-24T06:03:00;100078.19;;;14.60;100.00
51297;BME280;37380;45.186;9.792;2023-04-24T06:05:27;100062.22;;;14.45;100.00
51297;BME280;37380;45.186;9.792;2023-04-24T06:07:55;100114.94;;;14.56;100.00
51297;BME280;37380;45.186;9.792;2023-04-24T06:10:25;100109.84;;;14.76;100.00
51297;BME280;37380;45.186;9.792;2023-04-24T06:12:52;100078.22;;;14.65;100.00
51297;BME280;37380;45.186;9.792;2023-04-24T06:15:19;99949.63;;;13.87;100.00
51297;BME280;37380;45.186;9.792;2023-04-24T06:17:57;100087.09;;;14.78;100.00
51297;BME280;37380;45.186;9.792;2023-04-24T06:20:25;100117.06;;;15.01;100.00
51297;BME280;37380;45.186;9.792;2023-04-24T06:22:52;100007.22;;;14.68;100.00
51297;BME280;37380;45.186;9.792;2023-04-24T06:25:19;100127.94;;;15.56;100.00
51297;BME280;37380;45.186;9.792;2023-04-24T06:27:53;100066.59;;;15.76;100.00
51297;BME280;37380;45.186;9.792;2023-04-24T06:30:54;100102.75;;;16.29;100.00
51297;BME280;37380;45.186;9.792;2023-04-24T06:33:55;100115.06;;;16.36;100.00
51297;BME280;37380;45.186;9.792;2023-04-24T06:36:24;100076.38;;;16.21;100.00
51297;BME280;37380;45.186;9.792;2023-04-24T06:38:51;100071.13;;;16.64;100.00
51297;BME280;37380;45.186;9.792;2023-04-24T06:41:18;100116.81;;;17.28;100.00
51297;BME280;37380;45.186;9.792;2023-04-24T06:43:46;100055.13;;;17.58;100.00
51297;BME280;37380;45.186;9.792;2023-04-24T06:46:13;100068.25;;;17.70;100.00
51297;BME280;37380;45.186;9.792;2023-04-24T06:48:40;100080.78;;;17.01;100.00
51297;BME280;37380;45.186;9.792;2023-04-24T06:51:07;100136.19;;;17.24;100.00
51297;BME280;37380;45.186;9.792;2023-04-24T06:53:34;100137.88;;;17.54;100.00
51297;BME280;37380;45.186;9.792;2023-04-24T06:56:01;100132.06;;;18.73;100.00
51297;BME280;37380;45.186;9.792;2023-04-24T06:58:30;100137.34;;;19.67;100.00
51297;BME280;37380;45.186;9.792;2023-04-24T07:00:57;100035.56;;;19.05;100.00
51297;BME280;37380;45.186;9.792;2023-04-24T07:03:24;100165.50;;;18.73;100.00
51297;BME280;37380;45.186;9.792;2023-04-24T07:05:59;100126.94;;;18.40;100.00
51297;BME280;37380;45.186;9.792;2023-04-24T07:08:46;100147.09;;;18.61;100.00
51297;BME280;37380;45.186;9.792;2023-04-24T07:11:14;100016.47;;;17.28;100.00
51297;BME280;37380;45.186;9.792;2023-04-24T07:13:42;100074.63;;;16.74;100.00
51297;BME280;37380;45.186;9.792;2023-04-24T07:16:11;99992.84;;;15.88;100.00
51297;BME280;37380;45.186;9.792;2023-04-24T07:18:38;100144.16;;;16.79;100.00
51297;BME280;37380;45.186;9.792;2023-04-24T07:21:06;100111.59;;;16.77;100.00
51297;BME280;37380;45.186;9.792;2023-04-24T07:23:34;100160.88;;;17.00;100.00
51297;BME280;37380;45.186;9.792;2023-04-24T07:26:01;99969.03;;;17.09;100.00
51297;BME280;37380;45.186;9.792;2023-04-24T07:28:35;100145.03;;;19.01;100.00
51297;BME280;37380;45.186;9.792;2023-04-24T07:31:30;100138.28;;;19.59;100.00
51297;BME280;37380;45.186;9.792;2023-04-24T07:33:57;100125.63;;;19.00;100.00
51297;BME280;37380;45.186;9.792;2023-04-24T07:36:25;100019.25;;;16.86;100.00
51297;BME280;37380;45.186;9.792;2023-04-24T07:38:53;100122.13;;;17.18;100.00
51297;BME280;37380;45.186;9.792;2023-04-24T07:41:21;100033.34;;;16.76;100.00
51297;BME280;37380;45.186;9.792;2023-04-24T07:43:50;100044.41;;;19.04;100.00
51297;BME280;37380;45.186;9.792;2023-04-24T07:46:18;100011.41;;;18.45;100.00
51297;BME280;37380;45.186;9.792;2023-04-24T07:48:45;100136.44;;;20.35;100.00
51297;BME280;37380;45.186;9.792;2023-04-24T07:51:15;100114.25;;;19.77;100.00
51297;BME280;37380;45.186;9.792;2023-04-24T07:53:43;100105.72;;;19.49;100.00
51297;BME280;37380;45.186;9.792;2023-04-24T07:56:11;100040.25;;;17.29;100.00
51297;BME280;37380;45.186;9.792;2023-04-24T07:58:39;100019.09;;;17.40;100.00
51297;BME280;37380;45.186;9.792;2023-04-24T08:01:06;100028.00;;;17.07;100.00
51297;BME280;37380;45.186;9.792;2023-04-24T08:03:40;100126.88;;;18.49;100.00
51297;BME280;37380;45.186;9.792;2023-04-24T08:06:41;100082.72;;;18.62;100.00
51297;BME280;37380;45.186;9.792;2023-04-24T08:09:38;100116.53;;;19.28;100.00
51297;BME280;37380;45.186;9.792;2023-04-24T08:12:06;100093.78;;;17.77;100.00
51297;BME280;37380;45.186;9.792;2023-04-24T08:14:33;100067.53;;;17.31;100.00
51297;BME280;37380;45.186;9.792;2023-04-24T08:17:00;100077.84;;;17.99;100.00
51297;BME280;37380;45.186;9.792;2023-04-24T08:19:28;100182.91;;;19.11;100.00
51297;BME280;37380;45.186;9.792;2023-04-24T08:21:55;100092.72;;;18.18;100.00
51297;BME280;37380;45.186;9.792;2023-04-24T08:24:23;100107.78;;;18.04;100.00
51297;BME280;37380;45.186;9.792;2023-04-24T08:26:50;100093.94;;;18.90;100.00
51297;BME280;37380;45.186;9.792;2023-04-24T08:29:24;100122.50;;;18.48;100.00
51297;BME280;37380;45.186;9.792;2023-04-24T08:32:18;100056.09;;;18.82;100.00
51297;BME280;37380;45.186;9.792;2023-04-24T08:34:46;100036.78;;;18.70;100.00
51297;BME280;37380;45.186;9.792;2023-04-24T08:37:15;99967.72;;;17.95;100.00
51297;BME280;37380;45.186;9.792;2023-04-24T08:39:46;100176.22;;;18.58;100.00
51297;BME280;37380;45.186;9.792;2023-04-24T08:42:14;100184.25;;;18.41;100.00
51297;BME280;37380;45.186;9.792;2023-04-24T08:44:41;99950.47;;;17.28;100.00
51297;BME280;37380;45.186;9.792;2023-04-24T08:47:10;100063.44;;;18.46;100.00
51297;BME280;37380;45.186;9.792;2023-04-24T08:49:42;100169.94;;;18.72;100.00
51297;BME280;37380;45.186;9.792;2023-04-24T08:52:09;100088.66;;;17.19;100.00
51297;BME280;37380;45.186;9.792;2023-04-24T08:54:39;99947.13;;;16.93;100.00
51297;BME280;37380;45.186;9.792;2023-04-24T08:57:15;100104.53;;;18.90;100.00
51297;BME280;37380;45.186;9.792;2023-04-24T08:59:50;100195.38;;;18.99;100.00
51297;BME280;37380;45.186;9.792;2023-04-24T09:02:18;100133.38;;;19.22;100.00
51297;BME280;37380;45.186;9.792;2023-04-24T09:04:47;100079.72;;;17.72;100.00
51297;BME280;37380;45.186;9.792;2023-04-24T09:07:16;100193.25;;;18.04;100.00
51297;BME280;37380;45.186;9.792;2023-04-24T09:09:45;100182.41;;;18.55;100.00
51297;BME280;37380;45.186;9.792;2023-04-24T09:12:12;100144.09;;;19.08;100.00
51297;BME280;37380;45.186;9.792;2023-04-24T09:14:39;100129.31;;;18.83;100.00
51297;BME280;37380;45.186;9.792;2023-04-24T09:17:09;99949.41;;;17.62;100.00
51297;BME280;37380;45.186;9.792;2023-04-24T09:19:37;100111.97;;;18.40;100.00
51297;BME280;37380;45.186;9.792;2023-04-24T09:22:05;100190.19;;;18.83;100.00
51297;BME280;37380;45.186;9.792;2023-04-24T09:24:34;100032.19;;;17.61;100.00
51297;BME280;37380;45.186;9.792;2023-04-24T09:27:02;100025.34;;;17.17;100.00
51297;BME280;37380;45.186;9.792;2023-04-24T09:29:36;100137.75;;;17.97;100.00
51297;BME280;37380;45.186;9.792;2023-04-24T09:32:39;100161.13;;;18.76;100.00
51297;BME280;37380;45.186;9.792;2023-04-24T09:35:26;100170.34;;;20.15;100.00
51297;BME280;37380;45.186;9.792;2023-04-24T09:37:57;100179.78;;;20.37;100.00
51297;BME280;37380;45.186;9.792;2023-04-24T09:40:24;99979.91;;;19.11;100.00
51297;BME280;37380;45.186;9.792;2023-04-24T09:42:53;100160.69;;;19.26;100.00
51297;BME280;37380;45.186;9.792;2023-04-24T09:45:20;100147.03;;;18.71;100.00
51297;BME280;37380;45.186;9.792;2023-04-24T09:47:51;100163.94;;;20.29;100.00
51297;BME280;37380;45.186;9.792;2023-04-24T09:50:21;100121.44;;;20.32;100.00
51297;BME280;37380;45.186;9.792;2023-04-24T09:53:18;100039.53;;;19.43;100.00
51297;BME280;37380;45.186;9.792;2023-04-24T09:55:50;100179.28;;;20.07;99.38
51297;BME280;37380;45.186;9.792;2023-04-24T09:58:25;100137.97;;;19.86;100.00
51297;BME280;37380;45.186;9.792;2023-04-24T10:00:56;100170.19;;;20.25;98.13
51297;BME280;37380;45.186;9.792;2023-04-24T10:03:31;100076.63;;;19.44;99.68
51297;BME280;37380;45.186;9.792;2023-04-24T10:06:35;100137.44;;;19.54;96.29
51297;BME280;37380;45.186;9.792;2023-04-24T10:09:29;100186.72;;;18.67;100.00
51297;BME280;37380;45.186;9.792;2023-04-24T10:11:56;100187.78;;;19.54;100.00
51297;BME280;37380;45.186;9.792;2023-04-24T10:14:24;100023.88;;;19.26;100.00
51297;BME280;37380;45.186;9.792;2023-04-24T10:17:01;100132.63;;;19.93;98.85
51297;BME280;37380;45.186;9.792;2023-04-24T10:19:29;100168.22;;;19.68;99.13
51297;BME280;37380;45.186;9.792;2023-04-24T10:22:17;100175.38;;;19.57;100.00
51297;BME280;37380;45.186;9.792;2023-04-24T10:25:15;100099.59;;;20.74;100.00
51297;BME280;37380;45.186;9.792;2023-04-24T10:27:52;100160.69;;;21.75;100.00
51297;BME280;37380;45.186;9.792;2023-04-24T10:30:54;100135.63;;;20.92;92.55
51297;BME280;37380;45.186;9.792;2023-04-24T10:33:22;100130.94;;;21.06;100.00
51297;BME280;37380;45.186;9.792;2023-04-24T10:35:53;100165.16;;;21.73;91.97
51297;BME280;37380;45.186;9.792;2023-04-24T10:38:26;99959.22;;;18.62;98.84
51297;BME280;37380;45.186;9.792;2023-04-24T10:41:12;100131.19;;;18.65;100.00
51297;BME280;37380;45.186;9.792;2023-04-24T10:43:46;100041.44;;;18.38;98.46
51297;BME280;37380;45.186;9.792;2023-04-24T10:46:21;100171.50;;;19.01;100.00
51297;BME280;37380;45.186;9.792;2023-04-24T10:48:53;100016.69;;;18.48;100.00
51297;BME280;37380;45.186;9.792;2023-04-24T10:51:23;100176.97;;;19.77;98.08
51297;BME280;37380;45.186;9.792;2023-04-24T10:53:51;99895.53;;;17.88;100.00
51297;BME280;37380;45.186;9.792;2023-04-24T10:56:18;100164.84;;;20.27;97.56
51297;BME280;37380;45.186;9.792;2023-04-24T10:58:50;100161.16;;;20.40;93.49
51297;BME280;37380;45.186;9.792;2023-04-24T11:01:30;100158.09;;;20.04;94.16
51297;BME280;37380;45.186;9.792;2023-04-24T11:04:02;99924.38;;;19.02;93.42
51297;BME280;37380;45.186;9.792;2023-04-24T11:06:34;99931.28;;;19.80;93.50
51297;BME280;37380;45.186;9.792;2023-04-24T11:09:09;100156.53;;;19.88;100.00
51297;BME280;37380;45.186;9.792;2023-04-24T11:11:45;100152.84;;;20.01;100.00
51297;BME280;37380;45.186;9.792;2023-04-24T11:14:15;100117.19;;;20.21;94.74
51297;BME280;37380;45.186;9.792;2023-04-24T11:16:52;99983.47;;;19.09;96.25
51297;BME280;37380;45.186;9.792;2023-04-24T11:19:25;100113.91;;;20.03;98.03
51297;BME280;37380;45.186;9.792;2023-04-24T11:21:59;100154.63;;;20.64;94.26
51297;BME280;37380;45.186;9.792;2023-04-24T11:29:58;100144.38;;;21.46;87.93
51297;BME280;37380;45.186;9.792;2023-04-24T11:33:03;100112.03;;;21.23;87.94
51297;BME280;37380;45.186;9.792;2023-04-24T11:35:57;100107.31;;;20.32;87.42
51297;BME280;37380;45.186;9.792;2023-04-24T11:38:25;100058.34;;;19.96;89.77
51297;BME280;37380;45.186;9.792;2023-04-24T11:40:53;100136.25;;;20.49;88.70
51297;BME280;37380;45.186;9.792;2023-04-24T11:43:21;100127.53;;;20.42;90.81
51297;BME280;37380;45.186;9.792;2023-04-24T11:45:48;99993.53;;;19.49;87.17
51297;BME280;37380;45.186;9.792;2023-04-24T11:48:20;100026.25;;;20.14;86.03
51297;BME280;37380;45.186;9.792;2023-04-24T11:50:56;100124.31;;;20.79;86.01
51297;BME280;37380;45.186;9.792;2023-04-24T11:53:58;100097.41;;;20.99;88.43
51297;BME280;37380;45.186;9.792;2023-04-24T11:57:04;100130.69;;;21.20;80.06
51297;BME280;37380;45.186;9.792;2023-04-24T11:59:36;100095.31;;;21.18;78.33
51297;BME280;37380;45.186;9.792;2023-04-24T12:02:04;100110.88;;;20.88;73.96
51297;BME280;37380;45.186;9.792;2023-04-24T12:04:40;100112.81;;;21.28;74.66
51297;BME280;37380;45.186;9.792;2023-04-24T12:07:41;100074.00;;;21.21;73.98
51297;BME280;37380;45.186;9.792;2023-04-24T12:10:12;99978.53;;;20.65;71.68
51297;BME280;37380;45.186;9.792;2023-04-24T12:12:39;100013.78;;;20.73;74.90
51297;BME280;37380;45.186;9.792;2023-04-24T12:15:08;100108.63;;;21.64;72.70
51297;BME280;37380;45.186;9.792;2023-04-24T12:17:35;100020.41;;;21.84;77.65
51297;BME280;37380;45.186;9.792;2023-04-24T12:20:07;100108.69;;;22.02;71.33
51297;BME280;37380;45.186;9.792;2023-04-24T12:22:51;100045.69;;;21.63;71.47
51297;BME280;37380;45.186;9.792;2023-04-24T12:25:31;100019.81;;;20.82;72.18
51297;BME280;37380;45.186;9.792;2023-04-24T12:31:07;100048.84;;;21.82;65.70
51297;BME280;37380;45.186;9.792;2023-04-24T12:34:01;100046.63;;;21.16;68.07
51297;BME280;37380;45.186;9.792;2023-04-24T12:36:28;100070.13;;;21.82;69.64
51297;BME280;37380;45.186;9.792;2023-04-24T12:38:56;100071.59;;;21.96;68.33
51297;BME280;37380;45.186;9.792;2023-04-24T12:41:24;100019.16;;;21.62;60.41
51297;BME280;37380;45.186;9.792;2023-04-24T12:43:56;99962.63;;;21.10;62.40
51297;BME280;37380;45.186;9.792;2023-04-24T12:46:23;99982.84;;;21.61;61.29
51297;BME280;37380;45.186;9.792;2023-04-24T12:48:51;99976.28;;;21.37;60.00
51297;BME280;37380;45.186;9.792;2023-04-24T12:51:27;99845.53;;;21.21;67.27
51297;BME280;37380;45.186;9.792;2023-04-24T12:54:32;100047.38;;;22.47;61.40
51297;BME280;37380;45.186;9.792;2023-04-24T12:57:30;99964.84;;;22.11;61.95
51297;BME280;37380;45.186;9.792;2023-04-24T12:59:58;99907.28;;;22.08;61.32
51297;BME280;37380;45.186;9.792;2023-04-24T13:02:33;99971.06;;;22.10;47.64
51297;BME280;37380;45.186;9.792;2023-04-24T13:05:08;99826.28;;;21.48;56.70
51297;BME280;37380;45.186;9.792;2023-04-24T13:08:14;99782.69;;;20.79;40.34
51297;BME280;37380;45.186;9.792;2023-04-24T13:11:15;99921.19;;;21.45;39.13
51297;BME280;37380;45.186;9.792;2023-04-24T13:14:09;99904.94;;;21.59;44.36
51297;BME280;37380;45.186;9.792;2023-04-24T13:16:40;99937.50;;;22.04;50.02
51297;BME280;37380;45.186;9.792;2023-04-24T13:19:07;99800.28;;;21.24;39.73
51297;BME280;37380;45.186;9.792;2023-04-24T13:21:44;99927.16;;;22.29;38.54
51297;BME280;37380;45.186;9.792;2023-04-24T13:24:13;99798.78;;;21.51;34.77